Bookmark and Share
Track history (hours):
 

Mathilde Maersk

Last reported at 2014-Apr-24 10:23 UTC. Time now 2014-Apr-24 11:04 UTC.
Position N 50°32' E 001°02'.

Length 367 m; draft 12.2 m.

Type: Ship (hazmat cat B). MMSI: 220597990.

NotesDate/timePositionNaut miles runAvg speedWind from/ knotsBaromVisibWave heightAir tempDewpointWater temp
2014-Apr-24 10:23N 50°32' E 001°02'2520.6
2014-Apr-24 09:10N 50°23' E 000°26'5520.8
2014-Apr-24 06:30N 50°09' W 000°58'2122.0
2014-Apr-24 05:33N 50°04' W 001°30'2322.9
2014-Apr-24 04:33N 49°59' W 002°04'78120.8
2014-Apr-22 15:04N 38°11' W 009°44'1122.4
2014-Apr-22 14:33N 37°60' W 009°41'2222.2
2014-Apr-22 13:33N 37°38' W 009°35'6421.0
2014-Apr-22 10:31N 36°41' W 008°58'2122.4
2014-Apr-22 09:33N 36°34' W 008°33'14622.6
2014-Apr-22 03:05N 35°58' W 005°37'1120.4
2014-Apr-22 02:33N 36°00' W 005°24'2121.0
2014-Apr-22 01:33N 36°06' W 004°59'69422.4
2014-Apr-20 18:33N 37°41' E 009°21'7822.6
2014-Apr-20 15:06N 37°34' E 010°59'8223.1
2014-Apr-20 11:34N 36°58' E 012°32'2423.5
2014-Apr-20 10:34N 36°52' E 012°60'3023.2
2014-Apr-20 09:16N 36°44' E 013°36'1623.2
2014-Apr-20 08:34N 36°40' E 013°56'2323.3
2014-Apr-20 07:33N 36°33' E 014°24'7322.7
2014-Apr-20 04:20N 36°15' E 015°52'  

Dump ship's entire track history

sailing weather and tide predictions

Mathilde Maersk — OUJS2 — position and weather